Time;durP1;ratioP1;P1;durP2;ratioP2;P2;SDS_P1;SDS_P2;PMS_P1;PMS_P2;Temp;Humidity;BMP_temperature;BMP_pressure;BME280_temperature;BME280_humidity;BME280_pressure;Samples;Min_cycle;Max_cycle;Signal;HPM_P1;HPM_P2
2023/07/16 00:00:10;;;;;;;13.40;8.85;;;;;;;21.95;100.00;93360.38;5082812;28;20567;-74
2023/07/16 00:02:38;;;;;;;13.48;8.38;;;;;;;21.75;100.00;93335.19;5084239;28;20048;-74
2023/07/16 00:05:07;;;;;;;10.98;8.27;;;;;;;21.97;100.00;93363.47;5081204;28;20044;-74
2023/07/16 00:07:34;;;;;;;13.00;9.18;;;;;;;21.92;100.00;93360.91;5087064;28;20048;-74
2023/07/16 00:10:00;;;;;;;12.98;8.35;;;;;;;21.91;100.00;93361.97;5086460;28;20048;-74
2023/07/16 00:12:27;;;;;;;13.68;8.35;;;;;;;21.82;100.00;93348.72;5081570;28;20048;-74
2023/07/16 00:14:55;;;;;;;11.07;7.88;;;;;;;21.70;100.00;93324.75;5085709;28;20048;-74
2023/07/16 00:17:21;;;;;;;12.93;8.45;;;;;;;21.84;100.00;93354.44;5086577;28;20048;-74
2023/07/16 00:19:48;;;;;;;12.90;8.50;;;;;;;21.80;100.00;93345.59;5082159;28;20387;-74
2023/07/16 00:22:16;;;;;;;13.55;8.40;;;;;;;21.79;100.00;93353.72;5084350;28;20085;-74
2023/07/16 00:24:43;;;;;;;10.88;7.82;;;;;;;21.79;100.00;93351.13;5086369;28;20040;-74
2023/07/16 00:27:10;;;;;;;14.77;8.95;;;;;;;21.75;100.00;93350.84;5083064;28;20056;-74
2023/07/16 00:29:36;;;;;;;12.80;8.10;;;;;;;21.76;100.00;93353.19;5085172;28;20505;-74
2023/07/16 00:32:03;;;;;;;11.85;8.60;;;;;;;21.70;100.00;93354.31;5081945;28;20039;-74
2023/07/16 00:34:30;;;;;;;12.43;8.52;;;;;;;21.68;100.00;93353.00;5086195;28;20067;-74
2023/07/16 00:37:01;;;;;;;10.65;8.27;;;;;;;21.68;100.00;93364.25;5086054;28;20563;-74
2023/07/16 00:39:29;;;;;;;12.63;8.80;;;;;;;21.65;100.00;93349.09;5080133;28;20079;-74
2023/07/16 00:41:56;;;;;;;11.73;8.05;;;;;;;21.69;100.00;93362.41;5087240;28;20048;-74
2023/07/16 00:44:23;;;;;;;12.32;8.40;;;;;;;21.71;100.00;93353.25;5090541;28;20494;-74
2023/07/16 00:46:50;;;;;;;11.95;8.75;;;;;;;21.66;100.00;93347.28;5085088;28;20059;-74
2023/07/16 00:49:17;;;;;;;12.88;8.85;;;;;;;21.58;100.00;93333.72;5087442;28;20923;-74
2023/07/16 00:51:44;;;;;;;11.90;8.13;;;;;;;21.66;100.00;93349.88;5089819;28;20117;-75
2023/07/16 00:54:11;;;;;;;14.13;9.25;;;;;;;21.56;100.00;93348.91;5087866;28;20044;-74
2023/07/16 00:56:39;;;;;;;11.65;8.82;;;;;;;21.52;100.00;93350.50;5085871;28;20542;-74
2023/07/16 00:59:06;;;;;;;10.13;7.82;;;;;;;21.50;100.00;93344.78;5088264;28;20048;-74
2023/07/16 01:01:33;;;;;;;14.50;8.52;;;;;;;21.47;100.00;93351.34;5087908;28;20052;-74
2023/07/16 01:04:00;;;;;;;11.27;7.53;;;;;;;21.43;100.00;93347.72;5085440;28;20479;-75
2023/07/16 01:06:32;;;;;;;12.82;8.45;;;;;;;21.42;100.00;93350.63;5089704;28;20052;-75
2023/07/16 01:09:04;;;;;;;14.02;8.88;;;;;;;21.39;100.00;93346.72;5086369;28;20094;-75
2023/07/16 01:11:35;;;;;;;13.35;8.88;;;;;;;21.35;100.00;93356.16;5087450;28;20044;-74
2023/07/16 01:14:03;;;;;;;13.95;9.02;;;;;;;21.29;100.00;93341.56;5084438;28;20048;-74
2023/07/16 01:16:30;;;;;;;11.88;7.55;;;;;;;21.27;100.00;93348.88;5089584;28;20047;-74
2023/07/16 01:18:57;;;;;;;10.32;8.30;;;;;;;21.28;100.00;93343.41;5084058;28;20052;-74
2023/07/16 01:21:24;;;;;;;10.73;8.05;;;;;;;21.23;100.00;93354.66;5089811;28;20090;-75
2023/07/16 01:24:14;;;;;;;12.40;9.00;;;;;;;21.22;100.00;93347.91;5084823;28;20097;-75
2023/07/16 01:26:59;;;;;;;12.02;8.70;;;;;;;21.22;100.00;93344.50;5088318;28;20040;-75
2023/07/16 01:29:33;;;;;;;11.27;8.18;;;;;;;21.15;100.00;93334.34;5089637;28;20431;-74
2023/07/16 01:32:02;;;;;;;12.52;8.60;;;;;;;21.13;100.00;93333.84;5086143;28;20051;-74
2023/07/16 01:34:33;;;;;;;13.05;8.82;;;;;;;21.14;100.00;93345.06;5082351;28;20565;-75
2023/07/16 01:37:00;;;;;;;13.43;8.80;;;;;;;21.10;100.00;93342.22;5089197;28;20142;-74
2023/07/16 01:39:27;;;;;;;12.43;9.13;;;;;;;21.12;100.00;93345.34;5084222;28;20040;-74
2023/07/16 01:41:53;;;;;;;11.02;8.38;;;;;;;21.13;100.00;93338.28;5087511;28;20050;-74
2023/07/16 01:44:20;;;;;;;11.88;8.38;;;;;;;21.09;100.00;93340.66;5089570;28;20113;-75
2023/07/16 01:47:03;;;;;;;11.88;8.48;;;;;;;21.04;100.00;93336.25;5085049;28;20398;-75
2023/07/16 01:49:29;;;;;;;13.75;8.65;;;;;;;21.04;100.00;93345.91;5088349;28;20044;-75
2023/07/16 01:51:56;;;;;;;12.23;8.30;;;;;;;21.02;100.00;93340.19;5087934;28;20057;-75
2023/07/16 01:54:23;;;;;;;12.18;8.02;;;;;;;20.96;100.00;93342.84;5085518;28;20391;-75
2023/07/16 01:56:49;;;;;;;13.98;9.30;;;;;;;21.00;100.00;93340.47;5088821;28;20505;-75
2023/07/16 01:59:16;;;;;;;15.77;8.20;;;;;;;20.97;100.00;93341.03;5089221;28;20097;-75
2023/07/16 02:01:43;;;;;;;12.90;8.82;;;;;;;21.00;100.00;93339.66;5086950;28;20085;-75
2023/07/16 02:04:11;;;;;;;16.45;9.90;;;;;;;20.96;100.00;93350.66;5085744;28;20101;-75
2023/07/16 02:06:38;;;;;;;12.95;8.38;;;;;;;20.94;100.00;93344.94;5081747;28;20048;-75
2023/07/16 02:09:04;;;;;;;13.82;8.38;;;;;;;20.88;100.00;93332.19;5082695;28;20044;-75
2023/07/16 02:11:31;;;;;;;14.68;9.32;;;;;;;20.92;100.00;93338.44;5086512;28;20052;-74
2023/07/16 02:13:58;;;;;;;11.90;8.77;;;;;;;20.89;100.00;93338.97;5085022;28;20395;-75
2023/07/16 02:16:25;;;;;;;13.45;8.25;;;;;;;20.76;100.00;93327.25;5086501;28;20063;-75
2023/07/16 02:18:51;;;;;;;10.63;7.97;;;;;;;20.78;100.00;93343.44;5088773;28;20043;-75
2023/07/16 02:21:19;;;;;;;12.07;8.23;;;;;;;20.69;100.00;93338.78;5085170;28;20044;-74
2023/07/16 02:23:46;;;;;;;11.93;7.78;;;;;;;20.70;100.00;93342.94;5087718;28;20048;-75
2023/07/16 02:26:13;;;;;;;10.73;8.30;;;;;;;20.69;100.00;93345.84;5088014;28;20044;-76
2023/07/16 02:28:40;;;;;;;11.90;8.43;;;;;;;20.48;100.00;93317.25;5085798;28;20177;-74
2023/07/16 02:31:06;;;;;;;12.48;8.15;;;;;;;20.62;100.00;93337.53;5087965;28;20448;-75
2023/07/16 02:33:33;;;;;;;14.68;8.50;;;;;;;20.61;100.00;93349.00;5085381;28;20047;-75
2023/07/16 02:36:00;;;;;;;11.48;9.05;;;;;;;20.60;100.00;93350.81;5087528;28;20048;-75
2023/07/16 02:38:28;;;;;;;13.90;8.48;;;;;;;20.54;100.00;93351.91;5087556;28;20044;-74
2023/07/16 02:40:54;;;;;;;12.15;8.73;;;;;;;20.59;100.00;93353.72;5085094;28;20056;-75
2023/07/16 02:43:21;;;;;;;11.23;7.85;;;;;;;20.60;100.00;93352.69;5087754;28;20044;-75
2023/07/16 02:45:48;;;;;;;15.10;9.25;;;;;;;20.60;100.00;93355.28;5085974;28;20036;-75
2023/07/16 02:48:15;;;;;;;10.70;7.75;;;;;;;20.59;100.00;93358.94;5087848;28;20406;-74
2023/07/16 02:50:41;;;;;;;13.98;8.63;;;;;;;20.58;100.00;93350.31;5084580;28;20082;-74
2023/07/16 02:53:09;;;;;;;12.63;9.07;;;;;;;20.58;100.00;93349.53;5086867;28;20056;-75
2023/07/16 02:55:37;;;;;;;14.02;8.95;;;;;;;20.66;100.00;93355.00;5087702;28;20048;-74
2023/07/16 02:58:04;;;;;;;13.38;8.80;;;;;;;20.65;100.00;93350.03;5085065;28;20563;-74
2023/07/16 03:00:31;;;;;;;11.60;8.25;;;;;;;20.62;100.00;93353.97;5087169;28;20040;-74
2023/07/16 03:02:58;;;;;;;11.15;8.25;;;;;;;20.63;100.00;93346.91;5084418;28;20044;-75
2023/07/16 03:05:25;;;;;;;13.63;8.05;;;;;;;20.63;100.00;93352.13;5085233;28;20044;-74
2023/07/16 03:07:52;;;;;;;10.88;7.63;;;;;;;20.60;100.00;93350.81;5086160;28;20109;-74
2023/07/16 03:10:19;;;;;;;9.50;7.68;;;;;;;20.59;100.00;93356.34;5087902;28;20048;-74
2023/07/16 03:12:47;;;;;;;9.40;7.30;;;;;;;20.53;100.00;93361.59;5084001;28;20056;-74
2023/07/16 03:15:14;;;;;;;12.00;8.27;;;;;;;20.52;100.00;93359.22;5086564;28;20101;-75
2023/07/16 03:17:40;;;;;;;11.88;8.40;;;;;;;20.51;100.00;93355.84;5086652;28;20098;-74
2023/07/16 03:20:09;;;;;;;11.77;7.88;;;;;;;20.50;100.00;93359.50;5084480;28;20052;-74
2023/07/16 03:22:36;;;;;;;11.10;7.75;;;;;;;20.48;100.00;93355.59;5086526;28;20067;-74
2023/07/16 03:25:03;;;;;;;13.13;7.85;;;;;;;20.46;100.00;93352.47;5084131;28;20498;-74
2023/07/16 03:27:30;;;;;;;11.88;8.50;;;;;;;20.45;100.00;93353.53;5085016;28;20554;-74
2023/07/16 03:29:58;;;;;;;12.88;8.35;;;;;;;20.13;100.00;93311.91;5083508;28;20056;-74
2023/07/16 03:32:25;;;;;;;12.95;8.77;;;;;;;20.37;100.00;93355.63;5086922;28;20861;-74
2023/07/16 03:34:52;;;;;;;14.75;9.13;;;;;;;20.40;100.00;93356.94;5085084;28;20094;-74
2023/07/16 03:37:18;;;;;;;12.45;7.95;;;;;;;20.37;100.00;93355.63;5087154;28;20497;-74
2023/07/16 03:39:45;;;;;;;12.50;8.20;;;;;;;20.41;100.00;93361.13;5086653;28;20093;-74
2023/07/16 03:42:12;;;;;;;15.27;8.38;;;;;;;20.43;100.00;93365.00;5082504;28;20044;-74
2023/07/16 03:44:38;;;;;;;17.00;8.73;;;;;;;20.44;100.00;93363.19;5084599;28;20194;-74
2023/07/16 03:47:07;;;;;;;13.02;8.77;;;;;;;20.46;100.00;93360.31;5104327;28;20082;-74
2023/07/16 03:49:33;;;;;;;16.48;8.98;;;;;;;20.47;100.00;93365.25;5085611;28;20093;-74
2023/07/16 03:52:00;;;;;;;13.30;8.95;;;;;;;20.48;100.00;93366.03;5094992;28;20098;-74
2023/07/16 03:54:28;;;;;;;14.98;8.18;;;;;;;20.50;100.00;93364.72;5087478;28;20047;-74
2023/07/16 03:56:55;;;;;;;17.95;9.02;;;;;;;20.53;100.00;93368.63;5089406;28;20059;-75
2023/07/16 03:59:22;;;;;;;12.82;7.80;;;;;;;20.53;100.00;93364.19;5092922;28;20048;-74
2023/07/16 04:01:49;;;;;;;14.32;8.77;;;;;;;20.60;100.00;93368.34;5091326;28;20048;-75
2023/07/16 04:04:17;;;;;;;11.45;8.77;;;;;;;20.64;100.00;93369.38;5090560;28;20875;-75
2023/07/16 04:06:43;;;;;;;14.60;8.73;;;;;;;20.69;100.00;93380.53;5087426;28;20552;-75
2023/07/16 04:09:10;;;;;;;16.55;9.27;;;;;;;20.70;100.00;93379.50;5087862;28;20051;-74
2023/07/16 04:11:37;;;;;;;14.85;8.85;;;;;;;20.76;100.00;93372.44;5091497;28;20398;-74
2023/07/16 04:14:03;;;;;;;15.23;9.40;;;;;;;20.75;100.00;93368.25;5090080;28;20116;-75
2023/07/16 04:16:30;;;;;;;13.98;8.38;;;;;;;20.85;100.00;93374.47;5089033;28;20052;-75
2023/07/16 04:18:57;;;;;;;14.23;8.55;;;;;;;20.94;100.00;93389.34;5088973;28;20078;-74
2023/07/16 04:21:25;;;;;;;13.00;8.85;;;;;;;20.95;100.00;93377.84;5101144;28;20077;-74
2023/07/16 04:23:52;;;;;;;14.27;9.55;;;;;;;21.00;100.00;93381.44;5089273;28;20040;-74
2023/07/16 04:26:18;;;;;;;15.95;9.98;;;;;;;21.02;100.00;93385.34;5082799;28;20093;-74
2023/07/16 04:28:45;;;;;;;15.73;9.70;;;;;;;21.05;100.00;93384.03;5087607;28;20094;-74
2023/07/16 04:31:12;;;;;;;11.95;7.80;;;;;;;20.91;100.00;93353.31;5091073;28;20051;-74
2023/07/16 04:33:38;;;;;;;12.35;9.10;;;;;;;21.23;100.00;93393.06;5087679;28;20389;-74
2023/07/16 04:36:05;;;;;;;15.63;9.15;;;;;;;21.30;100.00;93396.16;5083654;28;20047;-74
2023/07/16 04:38:33;;;;;;;11.23;8.10;;;;;;;21.36;100.00;93392.47;5095186;28;20497;-75
2023/07/16 04:41:00;;;;;;;15.85;9.48;;;;;;;21.43;100.00;93397.34;5087944;28;20043;-74
2023/07/16 04:43:27;;;;;;;12.13;9.18;;;;;;;21.50;100.00;93391.84;5087821;28;20548;-74
2023/07/16 04:45:53;;;;;;;11.95;9.02;;;;;;;21.56;100.00;93400.44;5087603;28;20048;-74
2023/07/16 04:48:20;;;;;;;13.20;8.93;;;;;;;21.62;100.00;93399.31;5091530;28;20056;-74
2023/07/16 04:50:47;;;;;;;16.38;9.73;;;;;;;21.67;100.00;93401.09;5086303;28;20445;-74
2023/07/16 04:53:14;;;;;;;17.48;9.25;;;;;;;21.75;100.00;93398.72;5082059;28;20073;-74
2023/07/16 04:55:42;;;;;;;13.65;9.63;;;;;;;21.84;100.00;93404.13;5106507;28;20044;-74
2023/07/16 04:58:08;;;;;;;16.20;9.35;;;;;;;21.87;100.00;93400.97;5084744;28;20587;-74
2023/07/16 05:00:35;;;;;;;12.85;8.95;;;;;;;21.99;100.00;93403.19;5096657;28;20052;-74
2023/07/16 05:03:02;;;;;;;13.77;10.20;;;;;;;22.08;100.00;93405.97;5105827;28;20128;-74
2023/07/16 05:05:29;;;;;;;15.02;8.63;;;;;;;22.12;100.00;93404.38;5097097;28;20052;-73
2023/07/16 05:07:56;;;;;;;16.35;9.88;;;;;;;22.24;100.00;93408.44;5089058;28;20440;-73
2023/07/16 05:10:23;;;;;;;14.43;9.80;;;;;;;22.34;100.00;93402.31;5082108;28;20101;-73
2023/07/16 05:12:51;;;;;;;12.40;8.38;;;;;;;22.45;100.00;93403.75;5096861;28;20119;-74
2023/07/16 05:15:18;;;;;;;12.50;8.40;;;;;;;22.52;100.00;93408.66;5089642;28;20055;-74
2023/07/16 05:17:44;;;;;;;14.10;7.82;;;;;;;22.65;100.00;93413.28;5091464;28;20382;-74
2023/07/16 05:20:12;;;;;;;9.63;7.60;;;;;;;22.75;100.00;93401.09;5095072;28;20039;-75
2023/07/16 05:22:38;;;;;;;13.88;7.85;;;;;;;22.81;100.00;93406.00;5083444;28;20413;-74
2023/07/16 05:25:06;;;;;;;12.75;8.07;;;;;;;22.94;100.00;93407.16;5089677;28;20044;-74
2023/07/16 05:27:33;;;;;;;17.45;9.45;;;;;;;23.02;100.00;93400.50;5107800;28;20097;-73
2023/07/16 05:30:01;;;;;;;16.88;8.65;;;;;;;23.09;100.00;93395.69;5091977;28;20048;-75
2023/07/16 05:32:27;;;;;;;12.32;8.10;;;;;;;23.23;100.00;93398.34;5092752;28;20051;-75
2023/07/16 05:34:54;;;;;;;14.55;9.18;;;;;;;23.29;100.00;93387.81;5109390;28;20569;-74
2023/07/16 05:37:21;;;;;;;16.23;8.55;;;;;;;23.54;100.00;93410.25;5107232;28;20043;-74
2023/07/16 05:39:48;;;;;;;15.55;8.48;;;;;;;23.72;100.00;93405.25;5096816;28;20566;-73
2023/07/16 05:42:14;;;;;;;15.48;8.85;;;;;;;23.91;100.00;93407.84;5090670;28;20044;-74
2023/07/16 05:44:41;;;;;;;12.25;8.27;;;;;;;24.14;100.00;93400.13;5085277;28;20036;-74
2023/07/16 05:47:09;;;;;;;12.43;8.85;;;;;;;24.29;100.00;93406.94;5094329;28;20138;-74
2023/07/16 05:49:36;;;;;;;14.52;8.70;;;;;;;24.28;100.00;93389.63;5106539;28;20060;-74
2023/07/16 05:52:03;;;;;;;13.48;9.05;;;;;;;24.54;100.00;93405.66;5087387;28;20048;-74
2023/07/16 05:54:31;;;;;;;12.93;9.27;;;;;;;24.50;100.00;93417.06;5098190;28;20044;-74
2023/07/16 05:56:58;;;;;;;14.63;8.60;;;;;;;24.59;100.00;93422.41;5109131;28;20062;-74
2023/07/16 05:59:24;;;;;;;13.23;7.90;;;;;;;24.71;100.00;93416.66;5082227;28;20048;-74
2023/07/16 06:01:51;;;;;;;14.18;7.80;;;;;;;24.52;100.00;93418.31;5095727;28;20052;-74
2023/07/16 06:04:19;;;;;;;10.57;7.05;;;;;;;24.34;100.00;93422.59;5090887;28;20636;-73
2023/07/16 06:06:46;;;;;;;12.85;8.90;;;;;;;24.37;100.00;93424.63;5092964;28;20562;-74
2023/07/16 06:09:13;;;;;;;20.35;9.50;;;;;;;24.55;100.00;93430.88;5089969;28;20089;-75
2023/07/16 06:11:39;;;;;;;11.88;8.77;;;;;;;24.99;100.00;93435.81;5109308;28;20144;-75
2023/07/16 06:14:06;;;;;;;13.98;8.63;;;;;;;25.27;100.00;93432.34;5092455;28;20044;-75
2023/07/16 06:16:33;;;;;;;16.25;8.55;;;;;;;25.41;100.00;93427.03;5093696;28;20056;-75
2023/07/16 06:18:59;;;;;;;15.05;9.43;;;;;;;25.63;100.00;93433.41;5095501;28;20104;-75
2023/07/16 06:21:27;;;;;;;13.55;8.05;;;;;;;25.79;100.00;93431.97;5102078;28;20555;-75
2023/07/16 06:23:54;;;;;;;14.02;9.48;;;;;;;26.11;100.00;93435.38;5096166;28;20485;-75
2023/07/16 06:26:21;;;;;;;13.52;8.43;;;;;;;26.43;96.75;93427.53;5108063;28;20044;-75
2023/07/16 06:28:49;;;;;;;17.70;9.32;;;;;;;26.76;93.23;93426.38;5090387;28;20584;-75
2023/07/16 06:31:16;;;;;;;13.38;8.30;;;;;;;27.10;91.64;93432.81;5093885;28;20043;-75
2023/07/16 06:33:42;;;;;;;11.65;7.90;;;;;;;27.15;89.46;93429.25;5108227;28;20455;-75
2023/07/16 06:36:09;;;;;;;14.45;7.85;;;;;;;27.23;87.47;93425.84;5092830;28;20099;-75
2023/07/16 06:38:37;;;;;;;13.80;8.15;;;;;;;27.22;88.17;93403.22;5088191;28;20086;-75
2023/07/16 06:41:04;;;;;;;18.88;9.02;;;;;;;27.38;87.46;93419.34;5087055;28;20497;-75
2023/07/16 06:43:30;;;;;;;17.95;9.27;;;;;;;27.15;87.93;93421.34;5096144;28;20044;-75
2023/07/16 06:45:57;;;;;;;16.13;9.95;;;;;;;27.72;86.42;93419.66;5091009;28;20047;-75
2023/07/16 06:48:24;;;;;;;17.73;10.05;;;;;;;28.07;84.80;93416.16;5104287;28;20120;-76
2023/07/16 06:50:51;;;;;;;13.43;9.10;;;;;;;28.33;82.92;93421.38;5091276;28;20043;-76
2023/07/16 06:53:18;;;;;;;16.67;9.80;;;;;;;28.27;83.02;93415.50;5089580;28;20048;-75
2023/07/16 06:55:48;;;;;;;15.25;9.20;;;;;;;28.60;82.86;93414.09;5087001;28;20046;-75
2023/07/16 06:58:15;;;;;;;13.52;8.45;;;;;;;28.88;81.43;93416.31;5095589;28;20047;-75
2023/07/16 07:00:42;;;;;;;17.25;9.75;;;;;;;29.18;79.26;93420.78;5107835;28;20152;-75
2023/07/16 07:03:09;;;;;;;23.95;10.38;;;;;;;29.39;77.36;93422.66;5108008;28;20108;-75
2023/07/16 07:05:36;;;;;;;19.38;10.45;;;;;;;29.63;77.57;93410.66;5093668;28;20047;-75
2023/07/16 07:08:03;;;;;;;18.50;10.45;;;;;;;29.45;75.71;93392.25;5088173;28;20055;-75
2023/07/16 07:10:30;;;;;;;22.27;10.52;;;;;;;29.87;75.80;93415.25;5085803;28;20093;-75
2023/07/16 07:12:58;;;;;;;22.27;10.45;;;;;;;29.39;75.53;93420.78;5089050;28;20044;-75
2023/07/16 07:15:25;;;;;;;18.05;10.35;;;;;;;29.68;75.87;93418.38;5078065;28;20051;-75
2023/07/16 07:17:52;;;;;;;25.10;10.77;;;;;;;29.96;74.23;93413.28;5096821;28;20040;-75
2023/07/16 07:20:18;;;;;;;20.42;11.32;;;;;;;29.79;75.62;93414.22;5086676;28;20099;-75
2023/07/16 07:22:45;;;;;;;22.90;12.27;;;;;;;29.69;75.09;93418.06;5086826;28;20043;-75
2023/07/16 07:25:12;;;;;;;19.83;10.18;;;;;;;29.29;76.91;93421.19;5089057;28;20056;-74
2023/07/16 07:27:39;;;;;;;21.38;11.70;;;;;;;29.90;76.10;93408.53;5093979;28;20097;-75
2023/07/16 07:30:08;;;;;;;24.88;11.20;;;;;;;30.45;74.36;93413.72;5089029;28;20152;-75
2023/07/16 07:32:38;;;;;;;25.55;11.20;;;;;;;30.79;71.49;93401.88;5092763;28;20047;-75
2023/07/16 07:35:06;;;;;;;19.33;10.63;;;;;;;30.98;70.87;93418.34;5088968;28;20056;-75
2023/07/16 07:37:33;;;;;;;20.05;9.68;;;;;;;31.39;69.75;93408.53;5091015;28;20131;-76
2023/07/16 07:40:00;;;;;;;13.90;7.85;;;;;;;31.84;65.98;93411.97;5088771;28;20052;-75
2023/07/16 07:42:28;;;;;;;14.20;7.15;;;;;;;32.20;64.96;93419.34;5084318;28;20047;-75
2023/07/16 07:44:55;;;;;;;10.70;7.22;;;;;;;32.41;63.28;93411.16;5085933;28;20152;-75
2023/07/16 07:47:23;;;;;;;12.13;7.82;;;;;;;32.74;63.81;93411.88;5092106;28;20052;-75
2023/07/16 07:49:50;;;;;;;15.80;7.60;;;;;;;33.08;62.14;93406.91;5086247;28;20127;-75
2023/07/16 07:52:16;;;;;;;14.45;7.35;;;;;;;33.38;60.87;93414.38;5087246;28;20048;-75
2023/07/16 07:54:43;;;;;;;17.27;6.88;;;;;;;33.58;60.56;93414.41;5107418;28;20105;-75
2023/07/16 07:57:10;;;;;;;12.65;7.57;;;;;;;33.83;59.20;93414.84;5106804;28;20051;-75
2023/07/16 07:59:36;;;;;;;13.18;7.05;;;;;;;33.77;56.42;93415.50;5082114;28;20051;-75
2023/07/16 08:02:03;;;;;;;10.60;7.35;;;;;;;33.91;57.95;93412.34;5098023;28;20044;-75
2023/07/16 08:04:32;;;;;;;10.27;7.00;;;;;;;34.22;58.08;93415.91;5097073;28;20092;-75
2023/07/16 08:06:59;;;;;;;12.00;7.07;;;;;;;34.35;57.39;93413.84;5087864;28;20048;-75
2023/07/16 08:09:27;;;;;;;16.63;6.82;;;;;;;34.58;57.15;93408.53;5088114;28;20109;-75
2023/07/16 08:11:54;;;;;;;11.35;7.40;;;;;;;34.66;55.68;93417.38;5090556;28;20048;-75
2023/07/16 08:14:20;;;;;;;15.57;7.75;;;;;;;34.84;55.68;93417.63;5099588;28;20044;-75
2023/07/16 08:16:47;;;;;;;13.48;7.13;;;;;;;34.96;54.61;93418.56;5106151;28;20039;-75
2023/07/16 08:19:14;;;;;;;13.02;7.55;;;;;;;35.00;54.21;93422.06;5090217;28;20393;-75
2023/07/16 08:21:42;;;;;;;11.45;7.25;;;;;;;35.16;54.69;93417.34;5101431;28;20492;-75
2023/07/16 08:24:09;;;;;;;12.35;7.47;;;;;;;35.38;53.91;93414.16;5106559;28;20059;-75
2023/07/16 08:26:35;;;;;;;13.35;7.18;;;;;;;35.55;54.32;93418.19;5092239;28;20048;-75
2023/07/16 08:29:02;;;;;;;9.60;6.10;;;;;;;35.73;51.74;93414.94;5097326;28;20459;-75
2023/07/16 08:31:29;;;;;;;16.98;7.45;;;;;;;35.76;52.80;93398.94;5106462;28;20059;-75
2023/07/16 08:33:56;;;;;;;16.02;8.02;;;;;;;35.97;50.39;93417.09;5089233;28;20048;-75
2023/07/16 08:36:22;;;;;;;14.30;8.30;;;;;;;36.06;49.55;93418.72;5082506;28;20498;-75
2023/07/16 08:38:51;;;;;;;12.13;7.57;;;;;;;36.15;51.81;93416.53;5103115;28;20052;-75
2023/07/16 08:41:18;;;;;;;15.20;7.55;;;;;;;35.87;50.18;93417.00;5106113;28;20077;-75
2023/07/16 08:43:47;;;;;;;14.35;7.85;;;;;;;35.80;49.55;93417.69;5093724;28;20053;-75
2023/07/16 08:46:14;;;;;;;17.42;8.52;;;;;;;35.85;51.78;93414.69;5084022;28;20472;-76
2023/07/16 08:48:41;;;;;;;14.65;8.63;;;;;;;34.31;53.44;93421.00;5083555;28;20188;-75
2023/07/16 08:51:09;;;;;;;15.65;8.35;;;;;;;33.63;55.44;93410.69;5080762;28;20048;-75
2023/07/16 08:53:36;;;;;;;13.90;7.50;;;;;;;33.34;56.50;93410.88;5098567;28;20044;-75
2023/07/16 08:56:05;;;;;;;16.73;8.90;;;;;;;32.97;57.61;93412.03;5097590;28;20538;-75
2023/07/16 08:58:32;;;;;;;14.18;8.95;;;;;;;33.05;58.42;93411.03;5099025;28;20051;-75
2023/07/16 09:01:01;;;;;;;15.70;8.85;;;;;;;33.55;60.44;93407.88;5099274;28;20083;-76
2023/07/16 09:03:28;;;;;;;11.20;7.72;;;;;;;33.36;56.14;93410.53;5100597;28;20052;-76
2023/07/16 09:05:55;;;;;;;16.52;8.63;;;;;;;33.63;57.80;93408.78;5102332;28;20051;-76
2023/07/16 09:08:28;;;;;;;12.77;7.90;;;;;;;34.21;55.72;93409.06;5099961;27;20547;-76
2023/07/16 09:10:56;;;;;;;13.25;8.48;;;;;;;34.33;55.97;93400.88;5098224;28;20505;-76
2023/07/16 09:13:26;;;;;;;18.70;8.70;;;;;;;34.21;54.15;93407.16;5094221;28;20047;-76
2023/07/16 09:15:53;;;;;;;16.98;8.07;;;;;;;33.99;56.12;93376.69;5098491;28;20044;-76
2023/07/16 09:18:21;;;;;;;13.05;7.78;;;;;;;34.23;55.05;93401.47;5095638;28;20083;-76
2023/07/16 09:20:48;;;;;;;10.43;6.78;;;;;;;34.46;56.64;93403.34;5092023;28;20638;-76
2023/07/16 09:23:18;;;;;;;13.00;7.63;;;;;;;34.31;52.97;93400.47;5090372;28;20570;-76
2023/07/16 09:25:44;;;;;;;16.35;8.25;;;;;;;34.50;53.85;93407.63;5091440;28;20090;-76
2023/07/16 09:28:13;;;;;;;13.40;8.32;;;;;;;34.32;51.92;93379.88;5086310;28;20048;-76
2023/07/16 09:30:41;;;;;;;14.05;7.85;;;;;;;35.00;53.21;93398.03;5096111;28;20052;-76
2023/07/16 09:33:13;;;;;;;13.82;8.25;;;;;;;35.58;51.77;93401.41;5106445;28;20470;-76
2023/07/16 09:35:39;;;;;;;19.17;8.40;;;;;;;35.50;51.23;93397.13;5099806;28;20052;-76
2023/07/16 09:38:08;;;;;;;13.85;7.47;;;;;;;35.75;51.84;93408.09;5095704;27;20543;-76
2023/07/16 09:40:34;;;;;;;13.32;7.97;;;;;;;36.06;50.03;93406.13;5089158;28;20056;-76
2023/07/16 09:43:02;;;;;;;14.18;7.72;;;;;;;36.19;49.83;93390.59;5089973;28;20089;-76
2023/07/16 09:45:29;;;;;;;8.85;6.82;;;;;;;36.54;48.74;93393.13;5108548;28;20073;-76
2023/07/16 09:47:57;;;;;;;12.02;7.60;;;;;;;36.54;48.41;93401.16;5104139;28;20101;-76
2023/07/16 09:50:25;;;;;;;13.32;6.88;;;;;;;36.64;48.57;93382.53;5096348;28;20048;-75
2023/07/16 09:52:52;;;;;;;13.90;7.65;;;;;;;36.98;46.77;93394.19;5088519;28;20055;-76
2023/07/16 09:55:22;;;;;;;12.48;7.00;;;;;;;37.33;46.75;93395.53;5097963;28;20056;-76
2023/07/16 09:57:51;;;;;;;13.85;7.50;;;;;;;37.51;45.76;93387.56;5105046;28;20043;-76
2023/07/16 10:00:20;;;;;;;10.98;6.45;;;;;;;37.41;44.82;93382.94;5095477;28;20055;-76
2023/07/16 10:02:48;;;;;;;8.95;6.50;;;;;;;37.41;46.07;93389.06;5100488;28;20056;-76
2023/07/16 10:05:17;;;;;;;9.05;6.28;;;;;;;36.45;44.56;93378.19;5096885;28;20117;-76
2023/07/16 10:07:50;;;;;;;9.63;6.22;;;;;;;37.00;46.27;93386.56;5084106;28;20113;-76
2023/07/16 10:10:17;;;;;;;10.48;7.35;;;;;;;37.44;43.48;93382.19;5094044;28;20126;-76
2023/07/16 10:12:55;;;;;;;10.15;6.70;;;;;;;37.62;43.02;93387.59;5089144;28;20044;-76
2023/07/16 10:15:27;;;;;;;11.93;7.35;;;;;;;37.70;41.56;93370.41;5091821;28;20048;-76
2023/07/16 10:17:54;;;;;;;11.80;6.97;;;;;;;37.97;44.23;93361.25;5090184;28;20067;-76
2023/07/16 10:20:32;;;;;;;10.75;6.07;;;;;;;38.17;43.54;93364.34;5089251;28;20094;-76
2023/07/16 10:22:59;;;;;;;8.95;5.22;;;;;;;38.38;43.56;93375.44;5088401;28;20047;-76
2023/07/16 10:25:27;;;;;;;9.27;5.90;;;;;;;38.59;43.27;93378.13;5097196;28;20429;-76
2023/07/16 10:27:55;;;;;;;9.32;6.07;;;;;;;38.33;44.79;93363.97;5104172;28;20775;-76
2023/07/16 10:30:21;;;;;;;13.35;5.63;;;;;;;38.62;44.30;93371.22;5102376;28;20047;-76
2023/07/16 10:32:48;;;;;;;9.98;6.25;;;;;;;38.33;44.15;93366.66;5098175;28;20100;-76
2023/07/16 10:35:15;;;;;;;8.15;5.85;;;;;;;38.54;43.88;93369.69;5093992;28;20051;-76
2023/07/16 10:37:43;;;;;;;8.77;5.90;;;;;;;38.10;42.16;93367.03;5090975;28;20101;-76
2023/07/16 10:40:12;;;;;;;7.22;5.57;;;;;;;37.61;45.14;93358.53;5087978;28;20493;-75
2023/07/16 10:42:41;;;;;;;8.95;6.10;;;;;;;36.59;46.77;93363.34;5094619;28;20558;-76
2023/07/16 10:45:09;;;;;;;8.70;5.20;;;;;;;34.82;50.68;93365.75;5098058;28;20047;-75
2023/07/16 10:47:37;;;;;;;8.38;5.63;;;;;;;35.40;49.58;93363.84;5105885;28;20124;-75
2023/07/16 10:50:06;;;;;;;14.80;5.93;;;;;;;35.05;48.06;93361.13;5091809;28;20108;-75
2023/07/16 10:52:32;;;;;;;9.23;5.65;;;;;;;35.69;46.88;93359.56;5101536;28;20044;-75
2023/07/16 10:55:00;;;;;;;10.88;5.88;;;;;;;34.88;48.61;93369.66;5105413;28;20051;-75
2023/07/16 10:57:28;;;;;;;7.10;4.85;;;;;;;35.55;47.64;93348.72;5088769;28;20040;-75
2023/07/16 10:59:57;;;;;;;7.72;5.60;;;;;;;35.07;48.80;93360.00;5091864;28;20623;-76
2023/07/16 11:02:25;;;;;;;8.32;5.57;;;;;;;34.37;48.96;93345.69;5091393;28;20421;-76
2023/07/16 11:04:53;;;;;;;9.75;5.47;;;;;;;34.64;48.36;93337.72;5098490;28;20043;-76
2023/07/16 11:07:21;;;;;;;7.40;4.95;;;;;;;35.22;48.36;93350.28;5094430;28;20050;-75
2023/07/16 11:09:49;;;;;;;7.22;5.15;;;;;;;34.65;47.86;93351.81;5092704;28;20043;-75
2023/07/16 11:12:20;;;;;;;7.22;4.88;;;;;;;35.00;45.91;93352.66;5093583;28;20089;-75
2023/07/16 11:14:48;;;;;;;6.85;4.95;;;;;;;35.67;45.15;93353.81;5091094;28;20147;-75
2023/07/16 11:17:15;;;;;;;10.52;5.32;;;;;;;36.19;47.48;93342.44;5091607;28;20056;-75
2023/07/16 11:19:46;;;;;;;9.40;5.20;;;;;;;36.29;42.25;93335.66;5087710;28;20148;-75
2023/07/16 11:22:13;;;;;;;7.85;4.20;;;;;;;36.35;43.53;93339.53;5089273;28;20052;-75